เยรูซาเลม, Israel

01:34 PM IST วัน ธันวาคม 03, 2016 (GMT +0200)
Har Adar | | Change Station

Elev 2835 ft 31.83 °N, 35.13 °E | Updated 14 seconds ago

Clear
53.6 ฟาเรนไฮน์
Feels Like 53.6 ฟาเรนไฮน์
N
0.0
ลม ความผันแปร ลม from ทางทิศตะวันออกและทิศตะวันออกเฉียงเหนือ
Gusts 0.0 mph

วันนี้
High -- | Low -- ฟาเรนไฮน์
--% Chance of Precip.
Yesterday
High -- | Low -- ฟาเรนไฮน์
Precip. -- นิ้ว
ความดัน 30.24 นิ้ว
ทัศนวิสัย 6.2 ไมล์
เมฆ มีเมฆคลุมเป็นบางส่วน 5000 ft
อุณหภูมิที่อากาศอาจจับตัวเป็นหยาดน้ำค้าง 45 ฟาเรนไฮน์
ความชื้น 72%
Rainfall 0.00 นิ้ว
Snow Depth Not available.
6:23 AM 4:35 PM
เดือนเสี้ยว, 14% visible
METAR LLBG 031120Z 20004KT 9999 SCT050 18/10 Q1024 NOSIG
ความดัน 30.24 นิ้ว
ทัศนวิสัย 6.2 ไมล์
เมฆ มีเมฆคลุมเป็นบางส่วน 5000 ft
อุณหภูมิที่อากาศอาจจับตัวเป็นหยาดน้ำค้าง 45 ฟาเรนไฮน์
ความชื้น 72%
Rainfall 0.00 นิ้ว
Snow Depth Not available.
6:23 AM 4:35 PM
เดือนเสี้ยว, 14% visible
METAR LLBG 031120Z 20004KT 9999 SCT050 18/10 Q1024 NOSIG

10-Day Weather Forecast

No radar image for this location.
×

Almanac

ดาราศาสตร์

Dec. 03, 2016 Rise Set
Actual Time
Civil Twilight
Nautical Twilight
Astronomical Twilight
Moon
Length Of Visible Light
ความยาวของวัน
Tomorrow will be .
, % of the Moon is Illuminated

Today's Extremes

Country Highs Country Lows

Community

WunderPhotos

Upload Photos

1,955,431 photos uploaded!

WunderBlog® & News

Nearby

Air Quality

  Air Quality AQ Index Pollutant
Not available.

Snow Depth

Station Depth Elevation

Earthquake Activity

City Distance Mag. Time & Date
Minimum magnitude displayed is 2.5.

Coastal Water Temperatures

สถานที่ อุณหภูมิ

Stations

Nearby Weather Stations

Station Location Temp ลมหนาว อุณหภูมิที่อากาศอาจจับตัวเป็นหยาดน้ำค้าง ความชื้น ลม Precip. Elev ปรับปรุงล่าสุด Type